Time;durP1;ratioP1;P1;durP2;ratioP2;P2;SDS_P1;SDS_P2;PMS_P1;PMS_P2;Temp;Humidity;BMP_temperature;BMP_pressure;BME280_temperature;BME280_humidity;BME280_pressure;Samples;Min_cycle;Max_cycle;Signal;HPM_P1;HPM_P2
2021/04/13 00:01:12;;;;;;;16.58;14.82;;;3.80;99.90;;;;;;2097237;28;20077;-68
2021/04/13 00:02:44;;;;;;;17.67;14.65;;;3.70;99.90;;;;;;2098901;28;20402;-68
2021/04/13 00:03:46;;;;;;;19.08;14.95;;;3.70;99.90;;;;;;2097080;28;20420;-68
2021/04/13 00:04:50;;;;;;;14.85;13.35;;;3.70;99.90;;;;;;2098983;28;20048;-68
2021/04/13 00:05:54;;;;;;;16.48;14.77;;;3.70;99.90;;;;;;2096257;28;20028;-68
2021/04/13 00:06:57;;;;;;;17.23;14.90;;;3.60;99.90;;;;;;2103679;28;20027;-68
2021/04/13 00:08:01;;;;;;;17.58;14.38;;;3.60;99.90;;;;;;2100494;28;20025;-68
2021/04/13 00:09:16;;;;;;;17.13;14.10;;;3.60;99.90;;;;;;2098343;28;20432;-68
2021/04/13 00:10:40;;;;;;;18.38;15.32;;;3.60;99.90;;;;;;2099281;28;20052;-68
2021/04/13 00:11:41;;;;;;;19.40;17.27;;;3.60;99.90;;;;;;2099980;28;20348;-68
2021/04/13 00:12:43;;;;;;;14.93;13.32;;;3.60;99.90;;;;;;2100049;28;20036;-68
2021/04/13 00:13:43;;;;;;;18.50;15.15;;;3.60;99.90;;;;;;2099562;28;20017;-68
2021/04/13 00:14:51;;;;;;;17.17;14.35;;;3.60;99.90;;;;;;2097111;28;20063;-68
2021/04/13 00:16:05;;;;;;;16.70;14.90;;;3.60;99.90;;;;;;2093776;28;20024;-68
2021/04/13 00:17:10;;;;;;;19.35;16.80;;;3.50;99.90;;;;;;2101610;28;20028;-68
2021/04/13 00:18:13;;;;;;;16.88;14.88;;;3.50;99.90;;;;;;2095294;28;20024;-68
2021/04/13 00:19:19;;;;;;;17.67;15.07;;;3.50;99.90;;;;;;2102579;28;20016;-68
2021/04/13 00:20:41;;;;;;;16.52;13.88;;;3.50;99.90;;;;;;2100674;28;20044;-68
2021/04/13 00:21:44;;;;;;;15.32;13.73;;;3.50;99.90;;;;;;2099722;28;20099;-68
2021/04/13 00:22:45;;;;;;;18.00;15.43;;;3.40;99.90;;;;;;2097582;28;20027;-70
2021/04/13 00:23:46;;;;;;;17.75;15.70;;;3.40;99.90;;;;;;2103584;28;20024;-69
2021/04/13 00:24:47;;;;;;;18.15;15.50;;;3.40;99.90;;;;;;2104673;28;20059;-69
2021/04/13 00:25:52;;;;;;;19.25;16.42;;;3.40;99.90;;;;;;2092422;28;20074;-69
2021/04/13 00:26:56;;;;;;;17.80;14.68;;;3.40;99.90;;;;;;2104577;28;20028;-69
2021/04/13 00:27:58;;;;;;;16.33;14.55;;;3.40;99.90;;;;;;2098850;28;20052;-68
2021/04/13 00:29:01;;;;;;;17.85;15.45;;;3.40;99.90;;;;;;2102508;28;20036;-68
2021/04/13 00:30:12;;;;;;;18.48;15.52;;;3.40;99.90;;;;;;2102709;28;20383;-69
2021/04/13 00:31:18;;;;;;;17.42;15.63;;;3.40;99.90;;;;;;2098162;28;20059;-69
2021/04/13 00:32:23;;;;;;;19.98;15.77;;;3.40;99.90;;;;;;2102305;28;20486;-69
2021/04/13 00:33:27;;;;;;;22.70;16.38;;;3.30;99.90;;;;;;2101793;28;20031;-68
2021/04/13 00:34:43;;;;;;;16.98;14.73;;;3.30;99.90;;;;;;2098683;28;20047;-69
2021/04/13 00:35:46;;;;;;;17.65;15.35;;;3.30;99.90;;;;;;2097275;28;20036;-68
2021/04/13 00:36:48;;;;;;;23.23;16.70;;;3.30;99.90;;;;;;2103136;28;20028;-68
2021/04/13 00:37:49;;;;;;;18.50;15.20;;;3.20;99.90;;;;;;2100398;28;20020;-68
2021/04/13 00:38:52;;;;;;;17.83;15.93;;;3.30;99.90;;;;;;2099867;28;20044;-68
2021/04/13 00:40:29;;;;;;;17.77;15.32;;;3.30;99.90;;;;;;2097040;28;20102;-68
2021/04/13 00:41:31;;;;;;;17.50;14.35;;;3.20;99.90;;;;;;2099462;28;20028;-68
2021/04/13 00:42:32;;;;;;;15.75;14.05;;;3.20;99.90;;;;;;2098319;28;20107;-68
2021/04/13 00:43:33;;;;;;;18.52;16.50;;;3.20;99.90;;;;;;2098023;28;20016;-68
2021/04/13 00:44:40;;;;;;;20.38;17.85;;;3.20;99.90;;;;;;2097932;28;20107;-69
2021/04/13 00:45:45;;;;;;;19.33;15.52;;;3.20;99.90;;;;;;2104131;28;20027;-68
2021/04/13 00:47:00;;;;;;;17.35;15.30;;;3.20;99.90;;;;;;2099812;28;20071;-68
2021/04/13 00:48:02;;;;;;;15.48;13.63;;;3.20;99.90;;;;;;2090610;28;20722;-69
2021/04/13 00:49:04;;;;;;;19.00;15.90;;;3.20;99.90;;;;;;2092565;28;20021;-68
2021/04/13 00:50:10;;;;;;;17.13;15.00;;;3.10;99.90;;;;;;2102701;28;20024;-68
2021/04/13 00:51:33;;;;;;;18.45;15.70;;;3.10;99.90;;;;;;2101160;28;20028;-68
2021/04/13 00:52:42;;;;;;;19.08;15.05;;;3.10;99.90;;;;;;2099832;28;20406;-69
2021/04/13 00:53:45;;;;;;;18.50;16.07;;;3.10;99.90;;;;;;2092931;28;20033;-69
2021/04/13 00:54:54;;;;;;;19.88;16.38;;;3.10;99.90;;;;;;2101390;28;21823;-69
2021/04/13 00:56:00;;;;;;;17.90;15.00;;;3.00;99.90;;;;;;2097712;28;20063;-68
2021/04/13 00:57:22;;;;;;;19.60;15.63;;;3.00;99.90;;;;;;2097866;28;20017;-68
2021/04/13 00:58:41;;;;;;;17.77;15.55;;;3.00;99.90;;;;;;2100857;28;20031;-69
2021/04/13 00:59:45;;;;;;;19.02;15.57;;;3.00;99.90;;;;;;2100218;28;20399;-69
2021/04/13 01:00:53;;;;;;;22.80;16.30;;;3.00;99.90;;;;;;2096515;28;20028;-68
2021/04/13 01:02:02;;;;;;;17.42;14.55;;;3.00;99.90;;;;;;2097361;28;20458;-69
2021/04/13 01:03:04;;;;;;;16.98;14.57;;;3.00;99.90;;;;;;2102002;28;20028;-69
2021/04/13 01:04:16;;;;;;;18.88;16.45;;;2.90;99.90;;;;;;2100326;28;20050;-69
2021/04/13 01:05:19;;;;;;;18.70;15.38;;;2.90;99.90;;;;;;2093508;28;20374;-69
2021/04/13 01:06:24;;;;;;;19.70;15.63;;;2.90;99.90;;;;;;2096833;28;20107;-68
2021/04/13 01:07:38;;;;;;;18.60;15.93;;;2.90;99.90;;;;;;2101115;28;20500;-69
2021/04/13 01:08:40;;;;;;;19.23;15.02;;;2.90;99.90;;;;;;2100145;28;20024;-69
2021/04/13 01:09:49;;;;;;;20.77;15.10;;;2.90;99.90;;;;;;2098266;28;20021;-68
2021/04/13 01:10:53;;;;;;;22.48;17.27;;;2.90;99.90;;;;;;2094839;28;20064;-69
2021/04/13 01:12:08;;;;;;;16.27;14.30;;;2.90;99.90;;;;;;2103999;28;20502;-69
2021/04/13 01:13:12;;;;;;;17.10;14.90;;;2.90;99.90;;;;;;2100171;28;20016;-69
2021/04/13 01:14:13;;;;;;;19.33;16.02;;;2.90;99.90;;;;;;2097407;28;20035;-68
2021/04/13 01:15:16;;;;;;;17.10;14.95;;;2.80;99.90;;;;;;2098871;28;20016;-68
2021/04/13 01:16:21;;;;;;;18.52;15.85;;;2.80;99.90;;;;;;2100303;28;20024;-68
2021/04/13 01:17:24;;;;;;;19.63;15.50;;;2.80;99.90;;;;;;2098005;28;20058;-68
2021/04/13 01:18:37;;;;;;;17.83;15.32;;;2.80;99.90;;;;;;2101531;28;20093;-68
2021/04/13 01:19:58;;;;;;;19.92;16.23;;;2.80;99.90;;;;;;2102120;28;20024;-68
2021/04/13 01:21:19;;;;;;;;;;;2.80;99.90;;;;;;2096008;28;20025;-68
2021/04/13 01:22:50;;;;;;;14.55;13.05;;;2.70;99.90;;;;;;2099202;28;19905;-69
2021/04/13 01:23:59;;;;;;;19.70;16.05;;;2.70;99.90;;;;;;2089833;28;20041;-68
2021/04/13 01:25:04;;;;;;;20.55;15.65;;;2.60;99.90;;;;;;2103046;28;20513;-68
2021/04/13 01:26:06;;;;;;;19.75;15.82;;;2.70;99.90;;;;;;2099344;28;20032;-68
2021/04/13 01:27:12;;;;;;;17.90;14.73;;;2.70;99.90;;;;;;2100244;28;20021;-69
2021/04/13 01:28:18;;;;;;;19.08;15.75;;;2.60;99.90;;;;;;2099663;28;20012;-68
2021/04/13 01:29:21;;;;;;;17.65;15.75;;;2.70;99.90;;;;;;2101787;28;20050;-68
2021/04/13 01:30:31;;;;;;;22.27;16.00;;;2.60;99.90;;;;;;2102390;28;20025;-68
2021/04/13 01:31:44;;;;;;;15.20;13.27;;;2.60;99.90;;;;;;2100228;28;20391;-68
2021/04/13 01:32:45;;;;;;;18.85;15.38;;;2.60;99.90;;;;;;2091970;28;20725;-69
2021/04/13 01:33:50;;;;;;;19.38;16.33;;;2.60;99.90;;;;;;2099561;28;20060;-68
2021/04/13 01:35:01;;;;;;;19.05;16.33;;;2.60;99.90;;;;;;2088273;28;20033;-69
2021/04/13 01:36:22;;;;;;;16.58;14.35;;;2.60;99.90;;;;;;2094108;28;20150;-68
2021/04/13 01:37:50;;;;;;;;;;;2.60;99.90;;;;;;2100824;28;20028;-70
2021/04/13 01:39:17;;;;;;;14.65;12.82;;;2.50;99.90;;;;;;2095702;28;19908;-68
2021/04/13 01:40:43;;;;;;;15.82;13.27;;;2.50;99.90;;;;;;2104641;28;20078;-68
2021/04/13 01:41:59;;;;;;;16.48;14.07;;;2.50;99.90;;;;;;2097459;28;20029;-68
2021/04/13 01:43:01;;;;;;;17.52;13.32;;;2.40;99.90;;;;;;2090792;28;20397;-68
2021/04/13 01:44:02;;;;;;;18.00;14.15;;;2.40;99.90;;;;;;2092998;28;20025;-68
2021/04/13 01:45:16;;;;;;;17.08;14.68;;;2.50;99.90;;;;;;2103239;28;20024;-68
2021/04/13 01:46:17;;;;;;;17.20;14.85;;;2.50;99.90;;;;;;2099529;28;20484;-68
2021/04/13 01:47:21;;;;;;;20.80;15.32;;;2.40;99.90;;;;;;2099918;28;20394;-68
2021/04/13 01:48:21;;;;;;;16.83;15.00;;;2.50;99.90;;;;;;2103565;28;20024;-68
2021/04/13 01:49:23;;;;;;;18.08;15.57;;;2.50;99.90;;;;;;2104112;28;20024;-68
2021/04/13 01:50:28;;;;;;;17.45;14.65;;;2.50;99.90;;;;;;2100783;28;20024;-68
2021/04/13 01:51:32;;;;;;;18.88;15.73;;;2.50;99.90;;;;;;2096285;28;20021;-68
2021/04/13 01:52:37;;;;;;;17.13;15.10;;;2.50;99.90;;;;;;2095691;28;20020;-68
2021/04/13 01:53:41;;;;;;;19.92;15.68;;;2.50;99.90;;;;;;2095799;28;20712;-69
2021/04/13 01:54:42;;;;;;;19.08;14.27;;;2.50;99.90;;;;;;2095390;28;20048;-68
2021/04/13 01:55:52;;;;;;;16.60;13.82;;;2.50;99.90;;;;;;2095948;28;20021;-68
2021/04/13 01:57:10;;;;;;;15.48;13.70;;;2.40;99.90;;;;;;2095736;28;20017;-68
2021/04/13 01:58:25;;;;;;;16.23;13.88;;;2.40;99.90;;;;;;2091949;28;20051;-69
2021/04/13 01:59:40;;;;;;;17.88;15.32;;;2.40;99.90;;;;;;2100908;28;20099;-68
2021/04/13 02:01:00;;;;;;;16.52;14.80;;;2.40;99.90;;;;;;2097776;28;20020;-68
2021/04/13 02:02:07;;;;;;;16.20;14.15;;;2.40;99.90;;;;;;2094742;28;20025;-68
2021/04/13 02:03:24;;;;;;;15.88;14.23;;;2.30;99.90;;;;;;2102396;28;20043;-68
2021/04/13 02:04:32;;;;;;;16.73;14.95;;;2.30;99.90;;;;;;2096826;28;20028;-68
2021/04/13 02:05:37;;;;;;;19.90;14.85;;;2.30;99.90;;;;;;2098296;28;20028;-68
2021/04/13 02:07:28;;;;;;;18.08;14.68;;;2.30;99.90;;;;;;2104354;28;20074;-69
2021/04/13 02:08:53;;;;;;;20.48;14.95;;;2.20;99.90;;;;;;2099284;28;20053;-69
2021/04/13 02:10:03;;;;;;;18.80;15.85;;;2.20;99.90;;;;;;2097066;28;20143;-68
2021/04/13 02:11:09;;;;;;;19.60;15.70;;;2.20;99.90;;;;;;2095041;28;20016;-68
2021/04/13 02:12:23;;;;;;;20.50;15.90;;;2.20;99.90;;;;;;2104404;28;20118;-68
2021/04/13 02:13:35;;;;;;;19.20;15.13;;;2.20;99.90;;;;;;2099198;28;20419;-69
2021/04/13 02:14:42;;;;;;;18.77;15.55;;;2.20;99.90;;;;;;2096736;28;20029;-68
2021/04/13 02:16:15;;;;;;;19.48;16.27;;;2.20;99.90;;;;;;2102057;28;20021;-68
2021/04/13 02:17:24;;;;;;;18.80;15.88;;;2.20;99.90;;;;;;2094815;28;20120;-68
2021/04/13 02:18:35;;;;;;;20.77;15.40;;;2.20;99.90;;;;;;2105799;28;20047;-68
2021/04/13 02:19:36;;;;;;;20.80;16.55;;;2.10;99.90;;;;;;2100164;28;20528;-68
2021/04/13 02:20:43;;;;;;;22.63;17.85;;;2.10;99.90;;;;;;2101070;28;20051;-68
2021/04/13 02:21:51;;;;;;;20.88;15.98;;;2.20;99.90;;;;;;2105027;28;20348;-68
2021/04/13 02:22:52;;;;;;;19.08;14.98;;;2.20;99.90;;;;;;2096629;28;20054;-68
2021/04/13 02:23:57;;;;;;;16.67;14.98;;;2.10;99.90;;;;;;2103536;28;20466;-68
2021/04/13 02:25:01;;;;;;;19.90;15.50;;;2.20;99.90;;;;;;2107060;28;20039;-68
2021/04/13 02:26:05;;;;;;;21.20;17.77;;;2.10;99.90;;;;;;2100146;28;20051;-68
2021/04/13 02:27:12;;;;;;;22.42;18.17;;;2.10;99.90;;;;;;2099094;28;20067;-68
2021/04/13 02:28:16;;;;;;;19.48;15.70;;;2.20;99.90;;;;;;2094230;28;20028;-68
2021/04/13 02:29:19;;;;;;;21.70;17.38;;;2.20;99.90;;;;;;2105475;28;20020;-68
2021/04/13 02:30:38;;;;;;;17.63;14.45;;;2.10;99.90;;;;;;2104459;28;20023;-68
2021/04/13 02:31:48;;;;;;;17.13;14.50;;;2.10;99.90;;;;;;2104408;28;20020;-68
2021/04/13 02:32:51;;;;;;;20.02;16.67;;;2.10;99.90;;;;;;2101061;28;20048;-68
2021/04/13 02:33:51;;;;;;;20.80;18.02;;;2.10;99.90;;;;;;2102930;28;20479;-68
2021/04/13 02:35:02;;;;;;;17.27;14.43;;;2.10;99.90;;;;;;2099217;28;20353;-68
2021/04/13 02:36:18;;;;;;;17.55;14.02;;;2.10;99.90;;;;;;2096512;28;20498;-68
2021/04/13 02:37:44;;;;;;;17.00;14.38;;;2.10;99.90;;;;;;2105547;28;20036;-68
2021/04/13 02:38:50;;;;;;;19.42;16.45;;;2.10;99.90;;;;;;2098541;28;20039;-68
2021/04/13 02:39:54;;;;;;;17.95;14.48;;;2.10;99.90;;;;;;2090857;28;20052;-68
2021/04/13 02:41:11;;;;;;;17.55;14.68;;;2.10;99.90;;;;;;2092660;28;20448;-68
2021/04/13 02:42:14;;;;;;;19.77;15.13;;;2.10;99.90;;;;;;2104066;28;20070;-68
2021/04/13 02:43:42;;;;;;;20.38;16.20;;;2.10;99.90;;;;;;2102407;28;20016;-68
2021/04/13 02:44:57;;;;;;;19.80;16.63;;;2.10;99.90;;;;;;2101113;28;20031;-68
2021/04/13 02:46:04;;;;;;;22.27;16.60;;;2.10;99.90;;;;;;2092708;28;20025;-68
2021/04/13 02:47:10;;;;;;;18.15;15.13;;;2.00;99.90;;;;;;2100799;28;20020;-68
2021/04/13 02:48:18;;;;;;;20.13;15.50;;;2.10;99.90;;;;;;2105784;28;20017;-68
2021/04/13 02:49:20;;;;;;;17.50;14.90;;;2.10;99.90;;;;;;2104918;28;20093;-68
2021/04/13 02:50:22;;;;;;;22.30;17.23;;;2.10;99.90;;;;;;2101880;28;20112;-68
2021/04/13 02:51:23;;;;;;;18.75;15.57;;;2.10;99.90;;;;;;2103712;28;20031;-68
2021/04/13 02:52:30;;;;;;;16.02;14.20;;;2.10;99.90;;;;;;2106734;28;20027;-68
2021/04/13 02:53:45;;;;;;;21.98;14.68;;;2.10;99.90;;;;;;2100506;28;20021;-68
2021/04/13 02:54:55;;;;;;;22.52;17.00;;;2.10;99.90;;;;;;2098356;28;20474;-68
2021/04/13 02:55:58;;;;;;;18.10;15.68;;;2.10;99.90;;;;;;2099942;28;20028;-68
2021/04/13 02:57:04;;;;;;;19.23;14.88;;;2.10;99.90;;;;;;2100605;28;20024;-68
2021/04/13 02:58:07;;;;;;;16.70;13.73;;;2.10;99.90;;;;;;2103361;28;20484;-68
2021/04/13 02:59:11;;;;;;;16.60;13.70;;;2.10;99.90;;;;;;2101741;28;20051;-68
2021/04/13 03:00:29;;;;;;;16.08;12.98;;;2.10;99.90;;;;;;2098991;28;20013;-68
2021/04/13 03:01:32;;;;;;;18.83;13.93;;;2.10;99.90;;;;;;2099286;28;20111;-68
2021/04/13 03:02:49;;;;;;;19.58;15.65;;;2.00;99.90;;;;;;2103788;28;20592;-68
2021/04/13 03:03:51;;;;;;;26.90;15.43;;;2.00;99.90;;;;;;2096709;28;20458;-68
2021/04/13 03:04:53;;;;;;;17.27;14.20;;;2.00;99.90;;;;;;2099817;28;20032;-68
2021/04/13 03:05:56;;;;;;;20.40;15.43;;;2.00;99.90;;;;;;2098295;28;20043;-68
2021/04/13 03:06:58;;;;;;;22.60;15.00;;;2.00;99.90;;;;;;2102030;28;20026;-68
2021/04/13 03:08:05;;;;;;;18.27;14.90;;;2.10;99.90;;;;;;2101699;28;20025;-68
2021/04/13 03:09:06;;;;;;;20.75;15.48;;;2.00;99.90;;;;;;2093346;28;20029;-68
2021/04/13 03:10:12;;;;;;;20.60;15.60;;;2.00;99.90;;;;;;2099262;28;20022;-68
2021/04/13 03:11:23;;;;;;;21.20;16.33;;;2.00;99.90;;;;;;2100091;28;20047;-68
2021/04/13 03:12:24;;;;;;;20.83;16.02;;;2.00;99.90;;;;;;2099886;28;20016;-68
2021/04/13 03:13:28;;;;;;;22.88;14.73;;;2.00;99.90;;;;;;2100293;28;20447;-69
2021/04/13 03:14:51;;;;;;;18.15;14.63;;;2.00;99.90;;;;;;2097700;28;20024;-68
2021/04/13 03:15:58;;;;;;;16.73;12.15;;;2.00;99.90;;;;;;2092364;28;20805;-68
2021/04/13 03:16:59;;;;;;;19.90;14.43;;;2.00;99.90;;;;;;2103152;28;20021;-68
2021/04/13 03:18:04;;;;;;;18.30;13.80;;;2.00;99.90;;;;;;2099137;28;20025;-68
2021/04/13 03:19:13;;;;;;;18.80;15.18;;;2.00;99.90;;;;;;2100732;28;20066;-68
2021/04/13 03:20:17;;;;;;;19.35;15.18;;;2.10;99.90;;;;;;2101436;28;20754;-68
2021/04/13 03:21:32;;;;;;;20.25;16.33;;;2.10;99.90;;;;;;2097799;28;20348;-68
2021/04/13 03:22:35;;;;;;;21.95;14.13;;;2.00;99.90;;;;;;2098106;28;20067;-69
2021/04/13 03:23:37;;;;;;;20.58;16.08;;;2.10;99.90;;;;;;2101582;28;20417;-68
2021/04/13 03:24:42;;;;;;;20.52;15.88;;;2.10;99.90;;;;;;2103763;28;20036;-68
2021/04/13 03:25:54;;;;;;;17.63;14.00;;;2.00;99.90;;;;;;2098141;28;20024;-68
2021/04/13 03:27:03;;;;;;;19.63;14.80;;;2.10;99.90;;;;;;2090185;28;20078;-68
2021/04/13 03:28:08;;;;;;;21.98;14.45;;;2.10;99.90;;;;;;2099562;28;20050;-68
2021/04/13 03:29:32;;;;;;;19.55;15.13;;;2.10;99.90;;;;;;2102096;28;20031;-69
2021/04/13 03:30:38;;;;;;;20.63;15.00;;;2.10;99.90;;;;;;2099524;28;20039;-68
2021/04/13 03:31:40;;;;;;;20.55;15.50;;;2.10;99.90;;;;;;2104515;28;20026;-68
2021/04/13 03:33:04;;;;;;;21.52;15.80;;;2.10;99.90;;;;;;2096668;28;20483;-68
2021/04/13 03:34:06;;;;;;;20.38;15.55;;;2.10;99.90;;;;;;2097798;28;20066;-68
2021/04/13 03:35:08;;;;;;;19.70;15.93;;;2.10;99.90;;;;;;2098483;28;20082;-68
2021/04/13 03:36:12;;;;;;;23.67;15.98;;;2.10;99.90;;;;;;2099722;28;20442;-68
2021/04/13 03:37:14;;;;;;;20.60;15.27;;;2.10;99.90;;;;;;2100663;28;20107;-68
2021/04/13 03:38:19;;;;;;;21.73;16.00;;;2.10;99.90;;;;;;2100114;28;20044;-68
2021/04/13 03:39:32;;;;;;;23.10;16.17;;;2.10;99.90;;;;;;2101266;28;20034;-68
2021/04/13 03:40:36;;;;;;;21.35;15.73;;;2.10;99.90;;;;;;2103714;28;20027;-69
2021/04/13 03:41:47;;;;;;;20.73;16.42;;;2.10;99.90;;;;;;2103976;28;20028;-68
2021/04/13 03:42:53;;;;;;;19.73;14.65;;;2.20;99.90;;;;;;2094206;28;20021;-68
2021/04/13 03:44:02;;;;;;;24.60;17.50;;;2.20;99.90;;;;;;2098844;28;20021;-69
2021/04/13 03:45:07;;;;;;;25.42;16.67;;;2.20;99.90;;;;;;2104131;28;20079;-68
2021/04/13 03:46:10;;;;;;;21.73;16.02;;;2.20;99.90;;;;;;2100272;28;20124;-68
2021/04/13 03:47:19;;;;;;;21.35;14.93;;;2.20;99.90;;;;;;2099899;28;20093;-69
2021/04/13 03:48:24;;;;;;;25.55;16.88;;;2.20;99.90;;;;;;2100624;28;20012;-68
2021/04/13 03:49:32;;;;;;;28.55;16.05;;;2.30;99.90;;;;;;2101151;28;20135;-68
2021/04/13 03:50:37;;;;;;;22.55;16.17;;;2.30;99.90;;;;;;2105259;28;20047;-68
2021/04/13 03:51:45;;;;;;;21.00;15.88;;;2.30;99.90;;;;;;2102274;28;20047;-68
2021/04/13 03:52:45;;;;;;;22.95;16.17;;;2.30;99.90;;;;;;2101106;28;20082;-69
2021/04/13 03:53:46;;;;;;;22.73;16.02;;;2.30;99.90;;;;;;2102919;28;20031;-68
2021/04/13 03:54:48;;;;;;;23.73;16.63;;;2.30;99.90;;;;;;2101874;28;20360;-68
2021/04/13 03:56:05;;;;;;;24.08;16.88;;;2.40;99.90;;;;;;2104901;28;20043;-68
2021/04/13 03:57:07;;;;;;;21.75;15.65;;;2.40;99.90;;;;;;2099645;28;20158;-68
2021/04/13 03:58:17;;;;;;;22.73;16.67;;;2.40;99.90;;;;;;2101660;28;20107;-68
2021/04/13 03:59:21;;;;;;;22.35;15.43;;;2.40;99.90;;;;;;2101076;28;20034;-68
2021/04/13 04:00:27;;;;;;;24.50;15.55;;;2.40;99.90;;;;;;2099533;28;20346;-68
2021/04/13 04:01:31;;;;;;;21.42;14.98;;;2.40;99.90;;;;;;2099724;28;20012;-68
2021/04/13 04:02:32;;;;;;;18.75;15.80;;;2.40;99.90;;;;;;2101058;28;20378;-68
2021/04/13 04:03:40;;;;;;;21.73;14.68;;;2.40;99.90;;;;;;2098542;28;20025;-68
2021/04/13 04:04:43;;;;;;;17.52;14.73;;;2.50;99.90;;;;;;2099702;28;20052;-68
2021/04/13 04:05:57;;;;;;;21.38;15.38;;;2.50;99.90;;;;;;2101529;28;20124;-68
2021/04/13 04:07:04;;;;;;;20.75;15.05;;;2.50;99.90;;;;;;2094868;28;20024;-68
2021/04/13 04:08:27;;;;;;;16.40;14.50;;;2.50;99.90;;;;;;2100758;28;20028;-69
2021/04/13 04:09:31;;;;;;;20.83;14.82;;;2.50;99.90;;;;;;2099476;28;20021;-68
2021/04/13 04:10:34;;;;;;;20.27;14.93;;;2.50;99.90;;;;;;2102903;28;20050;-68
2021/04/13 04:11:35;;;;;;;19.17;14.05;;;2.50;99.90;;;;;;2103421;28;20017;-69
2021/04/13 04:12:36;;;;;;;18.65;14.85;;;2.50;99.90;;;;;;2100904;28;20024;-68
2021/04/13 04:13:51;;;;;;;19.55;14.55;;;2.50;99.90;;;;;;2099682;28;20415;-69
2021/04/13 04:14:59;;;;;;;18.90;14.70;;;2.50;99.90;;;;;;2095739;28;20021;-68
2021/04/13 04:16:08;;;;;;;20.58;14.27;;;2.50;99.90;;;;;;2098557;28;20025;-68
2021/04/13 04:17:15;;;;;;;19.85;13.88;;;2.50;99.90;;;;;;2102678;28;20020;-69
2021/04/13 04:18:27;;;;;;;21.10;14.45;;;2.50;99.90;;;;;;2095933;28;20577;-69
2021/04/13 04:19:30;;;;;;;19.05;13.57;;;2.50;99.90;;;;;;2096906;28;20518;-69
2021/04/13 04:20:33;;;;;;;21.10;14.18;;;2.50;99.90;;;;;;2097342;28;20032;-68
2021/04/13 04:21:37;;;;;;;17.42;13.85;;;2.60;99.90;;;;;;2105021;28;20024;-68
2021/04/13 04:22:49;;;;;;;19.83;14.02;;;2.60;99.90;;;;;;2096829;28;20038;-69
2021/04/13 04:24:16;;;;;;;22.20;14.18;;;2.60;99.90;;;;;;2092740;28;20020;-69
2021/04/13 04:25:29;;;;;;;18.90;15.10;;;2.60;99.90;;;;;;2100941;28;20020;-69
2021/04/13 04:26:35;;;;;;;16.83;14.32;;;2.60;99.90;;;;;;2102650;28;20032;-69
2021/04/13 04:27:38;;;;;;;18.90;12.43;;;2.60;99.90;;;;;;2098751;28;20025;-69
2021/04/13 04:28:41;;;;;;;20.77;14.38;;;2.60;99.90;;;;;;2096683;28;20062;-69
2021/04/13 04:30:03;;;;;;;20.85;14.38;;;2.60;99.90;;;;;;2104413;28;20027;-69
2021/04/13 04:31:35;;;;;;;15.88;14.00;;;2.70;99.90;;;;;;2097801;28;20483;-69
2021/04/13 04:32:42;;;;;;;16.42;13.32;;;2.70;99.90;;;;;;2094128;28;20040;-69
2021/04/13 04:33:42;;;;;;;18.60;13.32;;;2.70;99.90;;;;;;2090765;28;20550;-68
2021/04/13 04:34:43;;;;;;;18.20;14.30;;;2.70;99.90;;;;;;2103220;28;20046;-69
2021/04/13 04:35:44;;;;;;;15.77;12.68;;;2.70;99.90;;;;;;2098140;28;20029;-69
2021/04/13 04:36:46;;;;;;;21.38;14.70;;;2.70;99.90;;;;;;2095888;28;20104;-69
2021/04/13 04:37:46;;;;;;;24.73;14.27;;;2.70;99.90;;;;;;2089556;28;20057;-69
2021/04/13 04:38:47;;;;;;;20.15;13.93;;;2.80;99.90;;;;;;2091044;28;20078;-69
2021/04/13 04:40:13;;;;;;;16.48;13.30;;;2.70;99.90;;;;;;2091956;28;20044;-69
2021/04/13 04:41:14;;;;;;;19.90;13.55;;;2.80;99.90;;;;;;2093818;28;20491;-69
2021/04/13 04:42:29;;;;;;;19.02;14.43;;;2.80;99.90;;;;;;2095112;28;20884;-69
2021/04/13 04:43:58;;;;;;;22.77;14.07;;;2.80;99.90;;;;;;2088070;28;20071;-69
2021/04/13 04:45:32;;;;;;;16.55;13.70;;;2.80;99.90;;;;;;2089949;28;20052;-69
2021/04/13 04:46:42;;;;;;;18.55;13.50;;;2.80;99.90;;;;;;2094778;28;20037;-69
2021/04/13 04:47:45;;;;;;;20.10;14.75;;;2.70;99.90;;;;;;2090161;28;20345;-69
2021/04/13 04:49:01;;;;;;;21.13;14.90;;;2.80;99.90;;;;;;2091937;28;20087;-69
2021/04/13 04:50:02;;;;;;;15.88;11.93;;;2.80;99.90;;;;;;2093969;28;20028;-69
2021/04/13 04:51:10;;;;;;;17.42;13.85;;;2.80;99.90;;;;;;2090661;28;20021;-69
2021/04/13 04:52:10;;;;;;;19.08;13.65;;;2.80;99.90;;;;;;2089716;28;20020;-69
2021/04/13 04:53:11;;;;;;;18.65;14.38;;;2.80;99.90;;;;;;2089462;28;20020;-69
2021/04/13 04:54:11;;;;;;;18.67;13.90;;;2.80;99.90;;;;;;2090758;28;20039;-69
2021/04/13 04:55:13;;;;;;;17.60;13.23;;;2.80;99.90;;;;;;2090153;28;20025;-70
2021/04/13 04:56:14;;;;;;;22.23;14.50;;;2.80;99.90;;;;;;2089598;28;20025;-69
2021/04/13 04:57:14;;;;;;;18.35;14.40;;;2.80;99.90;;;;;;2089520;28;20025;-69
2021/04/13 04:58:15;;;;;;;20.90;13.45;;;2.90;99.90;;;;;;2091691;28;20119;-69
2021/04/13 04:59:16;;;;;;;22.40;14.15;;;2.90;99.90;;;;;;2089251;28;20052;-69
2021/04/13 05:00:18;;;;;;;18.58;13.90;;;2.90;99.90;;;;;;2091018;28;20025;-69
2021/04/13 05:01:18;;;;;;;18.38;13.15;;;2.90;99.90;;;;;;2092566;28;20016;-69
2021/04/13 05:02:19;;;;;;;20.23;13.98;;;2.90;99.90;;;;;;2093571;28;20104;-69
2021/04/13 05:03:21;;;;;;;21.33;14.13;;;2.90;99.90;;;;;;2095152;28;20058;-69
2021/04/13 05:04:22;;;;;;;17.05;13.95;;;3.00;99.90;;;;;;2096592;28;20471;-69
2021/04/13 05:05:22;;;;;;;19.95;13.35;;;2.90;99.90;;;;;;2096525;28;20738;-69
2021/04/13 05:06:24;;;;;;;20.30;14.35;;;3.00;99.90;;;;;;2096335;28;20024;-69
2021/04/13 05:07:24;;;;;;;22.17;14.95;;;3.00;99.90;;;;;;2096260;28;20021;-70
2021/04/13 05:08:26;;;;;;;20.98;14.27;;;3.00;99.90;;;;;;2095768;28;20027;-69
2021/04/13 05:09:26;;;;;;;23.63;15.32;;;3.00;99.90;;;;;;2096038;28;20036;-69
2021/04/13 05:10:27;;;;;;;19.88;15.27;;;3.00;99.90;;;;;;2078253;28;20500;-69
2021/04/13 05:11:27;;;;;;;18.63;14.25;;;3.00;99.90;;;;;;2087478;28;20020;-69
2021/04/13 05:12:28;;;;;;;20.50;14.45;;;3.10;99.90;;;;;;2095464;28;20455;-69
2021/04/13 05:13:29;;;;;;;26.25;16.67;;;3.10;99.90;;;;;;2096553;28;20043;-69
2021/04/13 05:14:30;;;;;;;21.33;14.73;;;3.00;99.90;;;;;;2096088;28;20043;-69
2021/04/13 05:15:31;;;;;;;22.67;14.13;;;3.10;99.90;;;;;;2093926;28;20052;-69
2021/04/13 05:16:31;;;;;;;21.50;15.82;;;3.10;99.90;;;;;;2094829;28;20103;-69
2021/04/13 05:17:32;;;;;;;26.55;16.00;;;3.10;99.90;;;;;;2096150;28;20081;-69
2021/04/13 05:18:33;;;;;;;19.10;14.73;;;3.10;99.90;;;;;;2096384;28;20039;-69
2021/04/13 05:19:33;;;;;;;20.25;14.77;;;3.10;99.90;;;;;;2096382;28;20994;-69
2021/04/13 05:20:34;;;;;;;20.85;14.98;;;3.10;99.90;;;;;;2097414;28;20032;-69
2021/04/13 05:21:35;;;;;;;20.95;14.65;;;3.10;99.90;;;;;;2092879;28;20032;-69
2021/04/13 05:22:35;;;;;;;21.05;14.80;;;3.20;99.90;;;;;;2094892;28;20067;-69
2021/04/13 05:23:36;;;;;;;21.58;14.82;;;3.20;99.90;;;;;;2095200;28;20348;-69
2021/04/13 05:24:36;;;;;;;20.50;14.98;;;3.20;99.90;;;;;;2096491;28;20115;-69
2021/04/13 05:25:37;;;;;;;25.95;14.55;;;3.20;99.90;;;;;;2094673;28;20060;-69
2021/04/13 05:26:38;;;;;;;22.13;16.02;;;3.20;99.90;;;;;;2096240;28;20071;-69
2021/04/13 05:27:38;;;;;;;20.60;14.98;;;3.20;99.90;;;;;;2093305;28;20473;-69
2021/04/13 05:28:39;;;;;;;18.67;14.02;;;3.20;99.90;;;;;;2097342;28;20063;-70
2021/04/13 05:29:40;;;;;;;23.13;14.95;;;3.30;99.90;;;;;;2094788;28;20047;-69
2021/04/13 05:30:40;;;;;;;21.98;15.43;;;3.30;99.90;;;;;;2096622;28;20044;-69
2021/04/13 05:31:42;;;;;;;20.83;15.27;;;3.30;99.90;;;;;;2097325;28;20471;-69
2021/04/13 05:32:43;;;;;;;28.58;16.42;;;3.30;99.90;;;;;;2096768;28;20023;-69
2021/04/13 05:33:43;;;;;;;24.88;14.93;;;3.30;99.90;;;;;;2097257;28;20028;-69
2021/04/13 05:34:44;;;;;;;23.42;15.13;;;3.30;99.90;;;;;;2095972;28;20012;-70
2021/04/13 05:35:45;;;;;;;22.35;15.10;;;3.40;99.90;;;;;;2096018;28;20115;-69
2021/04/13 05:36:52;;;;;;;22.73;15.55;;;3.40;99.90;;;;;;2097151;28;20032;-69
2021/04/13 05:38:01;;;;;;;21.98;14.75;;;3.40;99.90;;;;;;2090720;28;20446;-69
2021/04/13 05:39:04;;;;;;;25.58;15.38;;;3.40;99.90;;;;;;2094329;28;20051;-69
2021/04/13 05:40:10;;;;;;;22.48;16.05;;;3.50;99.90;;;;;;2094372;28;20050;-69
2021/04/13 05:41:13;;;;;;;18.63;14.05;;;3.50;99.90;;;;;;2095682;28;20115;-69
2021/04/13 05:42:21;;;;;;;27.98;15.50;;;3.50;99.90;;;;;;2094881;28;20383;-69
2021/04/13 05:43:24;;;;;;;21.80;14.85;;;3.50;99.90;;;;;;2094891;28;20075;-69
2021/04/13 05:44:24;;;;;;;21.42;15.77;;;3.60;99.90;;;;;;2093839;28;20032;-70
2021/04/13 05:45:28;;;;;;;22.60;15.73;;;3.60;99.90;;;;;;2094881;28;20587;-70
2021/04/13 05:46:32;;;;;;;24.45;15.90;;;3.60;99.90;;;;;;2092680;28;20035;-70